createdAt,value
2023-05-09T00:01:55.618Z,14.60
2023-05-09T00:06:57.469Z,14.60
2023-05-09T00:11:59.271Z,14.60
2023-05-09T00:17:01.077Z,14.60
2023-05-09T00:22:02.864Z,14.60
2023-05-09T00:27:04.816Z,14.50
2023-05-09T00:32:06.703Z,14.50
2023-05-09T00:37:08.595Z,14.50
2023-05-09T00:42:10.389Z,14.40
2023-05-09T00:47:12.126Z,14.50
2023-05-09T00:52:13.828Z,14.50
2023-05-09T00:57:17.609Z,14.50
2023-05-09T01:02:20.633Z,14.40
2023-05-09T01:07:31.135Z,14.30
2023-05-09T01:13:10.292Z,14.20
2023-05-09T01:18:20.038Z,14.10
2023-05-09T01:23:30.703Z,14.10
2023-05-09T01:29:01.576Z,12.30
2023-05-09T01:34:05.746Z,14.10
2023-05-09T01:39:10.158Z,14.10
2023-05-09T01:44:13.810Z,14.10
2023-05-09T01:49:17.578Z,14.10
2023-05-09T01:54:20.699Z,14.00
2023-05-09T01:59:23.944Z,14.00
2023-05-09T02:04:26.842Z,14.00
2023-05-09T02:09:28.703Z,13.80
2023-05-09T02:14:31.731Z,13.90
2023-05-09T02:19:35.507Z,13.80
2023-05-09T02:24:37.450Z,13.80
2023-05-09T02:29:45.881Z,13.80
2023-05-09T02:34:49.036Z,13.80
2023-05-09T02:39:50.966Z,13.80
2023-05-09T02:44:54.082Z,13.70
2023-05-09T02:49:55.975Z,13.70
2023-05-09T02:54:58.752Z,13.60
2023-05-09T03:00:00.482Z,13.60
2023-05-09T03:05:03.217Z,13.60
2023-05-09T03:10:06.000Z,13.60
2023-05-09T03:15:08.858Z,13.60
2023-05-09T03:20:11.361Z,13.50
2023-05-09T03:25:13.420Z,13.50
2023-05-09T03:30:15.657Z,13.60
2023-05-09T03:35:17.534Z,13.50
2023-05-09T03:40:19.535Z,13.50
2023-05-09T03:45:21.397Z,13.50
2023-05-09T03:50:23.265Z,13.50
2023-05-09T03:55:25.149Z,13.50
2023-05-09T04:00:27.142Z,13.60
2023-05-09T04:05:29.139Z,13.60
2023-05-09T04:10:32.169Z,13.60
2023-05-09T04:15:34.598Z,13.70
2023-05-09T04:20:36.548Z,13.70
2023-05-09T04:25:38.381Z,13.70
2023-05-09T04:30:40.228Z,13.80
2023-05-09T04:35:42.009Z,13.80
2023-05-09T04:40:43.746Z,13.90
2023-05-09T04:45:46.550Z,14.00
2023-05-09T04:50:51.227Z,14.00
2023-05-09T04:55:53.309Z,14.00
2023-05-09T05:00:56.174Z,14.20
2023-05-09T05:05:58.274Z,14.20
2023-05-09T05:11:00.290Z,14.20
2023-05-09T05:16:02.123Z,14.10
2023-05-09T05:21:04.010Z,14.20
2023-05-09T05:26:05.765Z,14.20
2023-05-09T05:31:07.571Z,14.40
2023-05-09T05:36:09.645Z,14.50
2023-05-09T05:41:11.619Z,14.80
2023-05-09T05:46:13.430Z,15.00
2023-05-09T05:51:15.322Z,15.10
2023-05-09T05:56:17.632Z,15.40
2023-05-09T06:01:19.485Z,15.40
2023-05-09T06:06:22.152Z,15.40
2023-05-09T06:11:24.000Z,15.40
2023-05-09T06:16:25.879Z,15.50
2023-05-09T06:21:27.681Z,15.80
2023-05-09T06:26:29.978Z,16.10
2023-05-09T06:31:32.152Z,16.00
2023-05-09T06:36:34.546Z,16.10
2023-05-09T06:41:37.387Z,16.30
2023-05-09T06:46:39.269Z,16.50
2023-05-09T06:51:41.181Z,16.40
2023-05-09T06:56:43.092Z,16.80
2023-05-09T07:01:44.971Z,16.80
2023-05-09T07:06:47.624Z,16.80
2023-05-09T07:11:49.412Z,16.90
2023-05-09T07:16:51.341Z,17.00
2023-05-09T07:21:53.241Z,17.10
2023-05-09T07:26:55.081Z,17.00
2023-05-09T07:31:56.861Z,17.20
2023-05-09T07:36:58.797Z,17.60
2023-05-09T07:42:00.659Z,17.80
2023-05-09T07:47:02.667Z,18.00
2023-05-09T07:52:04.702Z,18.20
2023-05-09T07:57:06.426Z,18.10
2023-05-09T08:02:08.815Z,18.30
2023-05-09T08:07:11.948Z,18.60
2023-05-09T08:12:13.762Z,19.00
2023-05-09T08:17:16.277Z,19.10
2023-05-09T08:22:18.997Z,19.30
2023-05-09T08:27:20.804Z,19.40
2023-05-09T08:32:22.595Z,19.50
2023-05-09T08:37:24.614Z,19.60
2023-05-09T08:42:27.569Z,19.90
2023-05-09T08:47:30.046Z,20.00
2023-05-09T08:52:35.380Z,20.10
2023-05-09T08:57:37.413Z,20.60
2023-05-09T09:02:42.795Z,20.70
2023-05-09T09:07:46.113Z,21.20
2023-05-09T09:12:50.170Z,21.20
2023-05-09T09:17:56.911Z,21.30
2023-05-09T09:23:03.954Z,23.00
2023-05-09T09:28:06.018Z,21.90
2023-05-09T09:33:07.877Z,22.10
2023-05-09T09:38:09.616Z,22.60
2023-05-09T09:43:11.445Z,22.50
2023-05-09T09:48:13.169Z,22.50
2023-05-09T09:53:15.069Z,22.60
2023-05-09T09:58:25.024Z,23.00
2023-05-09T10:03:36.324Z,23.20
2023-05-09T10:08:38.770Z,23.60
2023-05-09T10:13:40.740Z,23.50
2023-05-09T10:18:43.016Z,23.20
2023-05-09T10:23:48.628Z,23.50
2023-05-09T10:28:55.785Z,24.30
2023-05-09T10:34:05.443Z,23.60
2023-05-09T10:39:07.977Z,23.60
2023-05-09T10:44:10.319Z,24.10
2023-05-09T10:49:12.623Z,24.00
2023-05-09T10:54:30.554Z,23.50
2023-05-09T10:59:38.833Z,23.50
2023-05-09T11:04:40.860Z,23.20
2023-05-09T11:09:42.689Z,23.10
2023-05-09T11:14:47.343Z,23.00
2023-05-09T11:19:51.769Z,23.00
2023-05-09T11:25:14.315Z,23.60
2023-05-09T11:30:18.304Z,24.10
2023-05-09T11:35:22.323Z,24.40
2023-05-09T11:40:24.497Z,24.60
2023-05-09T11:45:31.608Z,24.20
2023-05-09T11:50:33.844Z,24.00
2023-05-09T11:55:38.078Z,24.00
2023-05-09T12:00:46.084Z,23.90
2023-05-09T12:05:51.066Z,24.40
2023-05-09T12:10:52.821Z,24.10
2023-05-09T12:16:02.689Z,23.70
2023-05-09T12:21:05.649Z,24.40
2023-05-09T12:26:07.523Z,24.20
2023-05-09T12:31:09.612Z,24.70
2023-05-09T12:36:13.716Z,25.20
2023-05-09T12:41:35.062Z,24.70
2023-05-09T12:46:41.449Z,24.80
2023-05-09T12:51:50.178Z,24.40
2023-05-09T12:56:53.485Z,25.00
2023-05-09T13:02:00.084Z,25.40
2023-05-09T13:07:08.277Z,26.40
2023-05-09T13:12:10.160Z,24.80
2023-05-09T13:17:12.035Z,24.40
2023-05-09T13:22:13.997Z,24.60
2023-05-09T13:27:16.523Z,24.50
2023-05-09T13:32:18.315Z,22.00
2023-05-09T13:37:20.175Z,24.10
2023-05-09T13:42:21.956Z,24.50
2023-05-09T13:47:24.055Z,24.20
2023-05-09T13:52:26.107Z,24.70
2023-05-09T13:57:28.036Z,24.50
2023-05-09T14:02:29.822Z,24.50
2023-05-09T14:07:31.654Z,24.60
2023-05-09T14:12:33.605Z,24.60
2023-05-09T14:17:35.481Z,24.20
2023-05-09T14:22:37.384Z,23.80
2023-05-09T14:27:39.262Z,23.50
2023-05-09T14:32:41.065Z,23.60
2023-05-09T14:37:43.151Z,23.50
2023-05-09T14:42:45.383Z,23.10
2023-05-09T14:47:48.090Z,23.30
2023-05-09T14:52:50.974Z,23.40
2023-05-09T14:57:52.681Z,23.70
2023-05-09T15:02:54.514Z,23.70
2023-05-09T15:07:56.361Z,23.50
2023-05-09T15:12:58.322Z,23.60
2023-05-09T15:18:02.226Z,23.90
2023-05-09T15:23:04.030Z,23.20
2023-05-09T15:28:06.928Z,22.90
2023-05-09T15:33:08.995Z,22.60
2023-05-09T15:38:12.216Z,22.30
2023-05-09T15:43:14.048Z,22.00
2023-05-09T15:48:16.684Z,21.90
2023-05-09T15:53:18.465Z,21.60
2023-05-09T15:58:20.201Z,21.50
2023-05-09T16:03:23.255Z,21.30
2023-05-09T16:08:25.187Z,20.90
2023-05-09T16:13:27.333Z,19.80
2023-05-09T16:18:29.283Z,18.80
2023-05-09T16:23:31.058Z,18.80
2023-05-09T16:28:32.837Z,17.90
2023-05-09T16:33:35.045Z,17.60
2023-05-09T16:38:36.870Z,17.30
2023-05-09T16:43:40.137Z,17.30
2023-05-09T16:48:41.873Z,17.20
2023-05-09T16:53:43.834Z,17.40
2023-05-09T16:58:45.577Z,17.50
2023-05-09T17:03:48.110Z,17.50
2023-05-09T17:08:49.905Z,17.50
2023-05-09T17:13:51.665Z,17.60
2023-05-09T17:18:53.393Z,17.50
2023-05-09T17:23:55.525Z,17.40
2023-05-09T17:28:57.319Z,17.40
2023-05-09T17:33:59.035Z,17.20
2023-05-09T17:39:01.011Z,17.10
2023-05-09T17:44:02.829Z,17.00
2023-05-09T17:49:07.665Z,17.00
2023-05-09T17:54:10.511Z,13.40
2023-05-09T17:59:12.279Z,16.30
2023-05-09T18:04:14.382Z,16.40
2023-05-09T18:09:16.244Z,16.30
2023-05-09T18:14:18.081Z,16.20
2023-05-09T18:19:19.906Z,16.40
2023-05-09T18:24:21.898Z,16.50
2023-05-09T18:29:23.792Z,16.50
2023-05-09T18:34:25.769Z,16.50
2023-05-09T18:39:27.578Z,16.40
2023-05-09T18:44:29.899Z,16.40
2023-05-09T18:49:31.846Z,16.40
2023-05-09T18:54:33.545Z,16.30
2023-05-09T18:59:35.329Z,16.30
2023-05-09T19:04:37.196Z,16.20
2023-05-09T19:09:40.144Z,16.20
2023-05-09T19:14:43.359Z,16.30
2023-05-09T19:19:45.093Z,16.20
2023-05-09T19:24:46.926Z,16.30
2023-05-09T19:29:49.952Z,16.30
2023-05-09T19:34:52.044Z,16.30
2023-05-09T19:39:53.906Z,16.30
2023-05-09T19:44:57.232Z,18.50
2023-05-09T19:49:59.036Z,16.30
2023-05-09T19:55:01.443Z,16.30
2023-05-09T20:00:03.569Z,16.20
2023-05-09T20:05:05.728Z,16.20
2023-05-09T20:10:08.370Z,16.20
2023-05-09T20:15:10.488Z,16.20
2023-05-09T20:20:12.368Z,16.20
2023-05-09T20:25:14.765Z,16.20
2023-05-09T20:30:17.375Z,16.20
2023-05-09T20:35:19.527Z,16.20
2023-05-09T20:40:21.267Z,16.10
2023-05-09T20:45:23.123Z,16.10
2023-05-09T20:50:25.104Z,16.10
2023-05-09T20:55:27.135Z,15.90
2023-05-09T21:00:47.001Z,16.00
2023-05-09T21:05:49.123Z,16.00
2023-05-09T21:10:52.658Z,16.00
2023-05-09T21:15:54.427Z,15.90
2023-05-09T21:21:11.475Z,16.00
2023-05-09T21:26:13.337Z,15.90
2023-05-09T21:31:15.086Z,16.00
2023-05-09T21:36:16.825Z,15.90
2023-05-09T21:41:18.596Z,15.80
2023-05-09T21:46:20.348Z,15.80
2023-05-09T21:51:22.230Z,15.80
2023-05-09T21:56:24.051Z,15.80
2023-05-09T22:01:25.803Z,15.80
2023-05-09T22:06:27.978Z,15.70
2023-05-09T22:11:29.946Z,15.60
2023-05-09T22:16:31.763Z,15.60
2023-05-09T22:21:33.595Z,15.70
2023-05-09T22:26:50.752Z,15.80
2023-05-09T22:31:52.554Z,15.70
2023-05-09T22:36:55.058Z,14.00
2023-05-09T22:41:57.932Z,15.70
2023-05-09T22:46:59.721Z,15.70
2023-05-09T22:52:01.658Z,15.60
2023-05-09T22:57:06.706Z,15.50
2023-05-09T23:07:11.060Z,15.60
2023-05-09T23:12:12.809Z,15.50
2023-05-09T23:17:14.574Z,15.60
2023-05-09T23:22:19.450Z,15.60
2023-05-09T23:27:21.609Z,15.60
2023-05-09T23:32:23.516Z,15.40
2023-05-09T23:37:40.348Z,14.90
2023-05-09T23:42:46.192Z,15.00
2023-05-09T23:47:48.040Z,15.10
2023-05-09T23:52:53.335Z,14.90
2023-05-09T23:57:55.060Z,15.10
